Time;durP1;ratioP1;P1;durP2;ratioP2;P2;SDS_P1;SDS_P2;PMS_P1;PMS_P2;Temp;Humidity;BMP_temperature;BMP_pressure;BME280_temperature;BME280_humidity;BME280_pressure;Samples;Min_cycle;Max_cycle;Signal;HPM_P1;HPM_P2
2022/12/03 00:00:04;;;;;;;35.20;17.17;;;;;;;;;;5010456;28;20061;-61
2022/12/03 00:02:30;;;;;;;32.73;16.57;;;;;;;;;;5010567;28;20496;-61
2022/12/03 00:04:56;;;;;;;34.67;17.47;;;;;;;;;;5009833;28;20041;-62
2022/12/03 00:07:22;;;;;;;35.07;17.50;;;;;;;;;;5010864;28;20073;-62
2022/12/03 00:09:48;;;;;;;35.87;17.33;;;;;;;;;;5010710;28;20046;-62
2022/12/03 00:12:15;;;;;;;31.73;16.43;;;;;;;;;;5010303;28;20054;-61
2022/12/03 00:14:41;;;;;;;29.37;15.90;;;;;;;;;;5010244;28;20125;-62
2022/12/03 00:17:07;;;;;;;36.40;18.27;;;;;;;;;;5010633;28;20042;-62
2022/12/03 00:19:33;;;;;;;39.13;17.17;;;;;;;;;;5010595;28;20496;-62
2022/12/03 00:21:59;;;;;;;37.20;19.20;;;;;;;;;;5010232;28;20718;-62
2022/12/03 00:24:25;;;;;;;37.83;18.20;;;;;;;;;;5010317;28;20092;-62
2022/12/03 00:26:51;;;;;;;35.43;18.97;;;;;;;;;;5010315;28;20056;-61
2022/12/03 00:29:17;;;;;;;39.00;17.27;;;;;;;;;;5010623;28;20066;-62
2022/12/03 00:31:44;;;;;;;37.53;17.07;;;;;;;;;;5010062;28;20050;-62
2022/12/03 00:34:10;;;;;;;37.50;18.07;;;;;;;;;;5010034;28;20847;-62
2022/12/03 00:36:36;;;;;;;32.97;17.53;;;;;;;;;;5010274;28;20042;-62
2022/12/03 00:39:02;;;;;;;33.77;16.60;;;;;;;;;;5010447;28;20046;-62
2022/12/03 00:41:28;;;;;;;36.30;19.77;;;;;;;;;;5010289;28;20296;-62
2022/12/03 00:43:56;;;;;;;38.30;19.20;;;;;;;;;;5009840;28;20116;-62
2022/12/03 00:46:26;;;;;;;35.80;17.27;;;;;;;;;;5009470;28;20132;-61
2022/12/03 00:48:52;;;;;;;34.20;17.47;;;;;;;;;;5009900;28;20104;-61
2022/12/03 00:51:18;;;;;;;35.77;17.27;;;;;;;;;;5010075;28;20050;-62
2022/12/03 00:53:44;;;;;;;39.97;18.70;;;;;;;;;;5009432;28;20053;-62
2022/12/03 00:56:10;;;;;;;42.40;19.03;;;;;;;;;;5010023;28;20523;-62
2022/12/03 00:58:36;;;;;;;39.23;18.67;;;;;;;;;;5008549;28;20046;-62
2022/12/03 01:01:02;;;;;;;43.07;21.40;;;;;;;;;;5010019;28;20116;-62
2022/12/03 01:03:28;;;;;;;38.53;18.13;;;;;;;;;;5009097;28;20157;-62
2022/12/03 01:05:54;;;;;;;34.80;18.20;;;;;;;;;;5009639;28;20491;-61
2022/12/03 01:08:21;;;;;;;38.70;19.17;;;;;;;;;;5009845;28;20104;-62
2022/12/03 01:10:47;;;;;;;38.17;19.03;;;;;;;;;;5009865;28;20054;-61
2022/12/03 01:13:13;;;;;;;39.37;18.83;;;;;;;;;;5009176;28;20780;-61
2022/12/03 01:15:39;;;;;;;38.93;18.87;;;;;;;;;;5009839;28;20046;-62
2022/12/03 01:18:05;;;;;;;38.27;19.00;;;;;;;;;;5009449;28;20065;-62
2022/12/03 01:20:31;;;;;;;37.27;16.90;;;;;;;;;;5009370;28;20105;-62
2022/12/03 01:22:57;;;;;;;41.87;20.13;;;;;;;;;;5009738;28;20046;-62
2022/12/03 01:25:23;;;;;;;37.77;18.90;;;;;;;;;;5009567;28;20088;-61
2022/12/03 01:27:49;;;;;;;36.73;16.87;;;;;;;;;;5009624;28;20045;-62
2022/12/03 01:30:15;;;;;;;39.43;19.27;;;;;;;;;;5009191;28;20050;-62
2022/12/03 01:32:41;;;;;;;39.33;19.60;;;;;;;;;;5009097;28;20108;-62
2022/12/03 01:35:08;;;;;;;37.70;18.63;;;;;;;;;;5008063;28;20050;-61
2022/12/03 01:37:34;;;;;;;39.43;18.37;;;;;;;;;;4996312;28;20054;-62
2022/12/03 01:40:00;;;;;;;39.63;19.03;;;;;;;;;;4989595;28;20485;-61
2022/12/03 01:42:27;;;;;;;37.47;17.90;;;;;;;;;;4989210;28;20073;-61
2022/12/03 01:44:55;;;;;;;41.73;19.33;;;;;;;;;;4989231;28;20058;-62
2022/12/03 01:47:24;;;;;;;37.27;18.30;;;;;;;;;;4989598;28;20104;-61
2022/12/03 01:49:54;;;;;;;37.00;18.43;;;;;;;;;;4989716;28;20408;-62
2022/12/03 01:52:25;;;;;;;37.43;18.73;;;;;;;;;;4989074;28;20531;-61
2022/12/03 01:54:53;;;;;;;37.27;18.50;;;;;;;;;;5005656;28;20045;-62
2022/12/03 01:57:39;;;;;;;33.57;17.70;;;;;;;;;;5008111;28;20091;-62
2022/12/03 02:00:05;;;;;;;35.20;18.20;;;;;;;;;;5008773;28;20104;-62
2022/12/03 02:02:32;;;;;;;36.77;17.73;;;;;;;;;;5009188;28;20057;-62
2022/12/03 02:04:59;;;;;;;33.87;17.30;;;;;;;;;;5008900;28;20515;-62
2022/12/03 02:07:25;;;;;;;34.60;19.47;;;;;;;;;;5009297;28;20137;-61
2022/12/03 02:09:53;;;;;;;37.83;19.77;;;;;;;;;;5008683;28;20053;-62
2022/12/03 02:12:20;;;;;;;34.63;17.33;;;;;;;;;;5008467;28;20065;-62
2022/12/03 02:14:46;;;;;;;34.73;18.30;;;;;;;;;;5008741;28;20639;-62
2022/12/03 02:17:13;;;;;;;34.03;18.97;;;;;;;;;;5008938;28;20401;-62
2022/12/03 02:19:39;;;;;;;37.40;18.97;;;;;;;;;;5008936;28;20391;-62
2022/12/03 02:22:23;;;;;;;34.73;18.10;;;;;;;;;;5008606;28;20042;-62
2022/12/03 02:24:58;;;;;;;35.50;18.80;;;;;;;;;;5008771;28;20050;-61
2022/12/03 02:27:26;;;;;;;30.57;17.47;;;;;;;;;;5008827;28;20046;-62
2022/12/03 02:29:52;;;;;;;32.37;17.73;;;;;;;;;;5008822;28;20053;-62
2022/12/03 02:32:19;;;;;;;30.07;16.60;;;;;;;;;;5008481;28;20049;-62
2022/12/03 02:34:45;;;;;;;32.17;16.47;;;;;;;;;;5008935;28;20038;-62
2022/12/03 02:37:38;;;;;;;29.63;16.20;;;;;;;;;;4997493;28;20074;-62
2022/12/03 02:40:06;;;;;;;30.90;15.87;;;;;;;;;;4987906;28;20057;-62
2022/12/03 02:42:36;;;;;;;29.00;16.43;;;;;;;;;;4988767;28;20101;-62
2022/12/03 02:45:05;;;;;;;31.17;17.27;;;;;;;;;;4988600;28;20406;-61
2022/12/03 02:47:31;;;;;;;32.57;16.80;;;;;;;;;;4988767;28;20061;-62
2022/12/03 02:49:57;;;;;;;29.43;15.17;;;;;;;;;;4989226;28;20046;-61
2022/12/03 02:52:24;;;;;;;32.50;16.90;;;;;;;;;;4988656;28;20497;-62
2022/12/03 02:54:50;;;;;;;26.33;14.97;;;;;;;;;;4989451;28;20746;-62
2022/12/03 02:57:16;;;;;;;27.87;16.20;;;;;;;;;;4992565;28;20053;-62
2022/12/03 02:59:44;;;;;;;28.70;16.17;;;;;;;;;;4992396;28;20057;-62
2022/12/03 03:02:10;;;;;;;29.80;17.53;;;;;;;;;;4992581;28;20050;-62
2022/12/03 03:04:37;;;;;;;30.43;17.77;;;;;;;;;;4992569;28;20050;-62
2022/12/03 03:07:03;;;;;;;28.13;15.43;;;;;;;;;;4991896;28;20485;-62
2022/12/03 03:09:29;;;;;;;28.37;16.00;;;;;;;;;;4992273;28;20049;-61
2022/12/03 03:11:55;;;;;;;28.23;14.77;;;;;;;;;;4992169;28;20050;-62
2022/12/03 03:14:21;;;;;;;28.20;16.47;;;;;;;;;;4992554;28;20050;-62
2022/12/03 03:16:54;;;;;;;30.30;17.43;;;;;;;;;;4991672;28;20531;-61
2022/12/03 03:19:22;;;;;;;28.58;16.73;;;;;;;;;;4974677;28;20061;-62
2022/12/03 03:21:48;;;;;;;29.77;15.77;;;;;;;;;;4992252;28;20054;-62
2022/12/03 03:24:14;;;;;;;30.40;15.93;;;;;;;;;;4992175;28;20054;-62
2022/12/03 03:26:40;;;;;;;32.33;17.80;;;;;;;;;;4992033;28;20048;-62
2022/12/03 03:29:07;;;;;;;30.50;17.30;;;;;;;;;;4991931;28;20424;-62
2022/12/03 03:31:33;;;;;;;29.27;16.97;;;;;;;;;;4991997;28;20050;-62
2022/12/03 03:33:59;;;;;;;35.47;18.60;;;;;;;;;;4991666;28;20046;-62
2022/12/03 03:36:25;;;;;;;28.93;16.17;;;;;;;;;;4991895;28;20046;-62
2022/12/03 03:38:52;;;;;;;32.97;16.73;;;;;;;;;;4992043;28;20049;-62
2022/12/03 03:41:19;;;;;;;32.57;17.30;;;;;;;;;;4991664;28;20046;-62
2022/12/03 03:43:46;;;;;;;30.50;16.97;;;;;;;;;;4991920;28;20497;-62
2022/12/03 03:46:13;;;;;;;33.60;18.63;;;;;;;;;;4991807;28;20046;-62
2022/12/03 03:48:40;;;;;;;31.63;18.10;;;;;;;;;;4991055;28;20058;-62
2022/12/03 03:51:08;;;;;;;34.23;18.50;;;;;;;;;;4991573;28;20090;-62
2022/12/03 03:53:35;;;;;;;32.67;17.60;;;;;;;;;;4990341;28;20054;-62
2022/12/03 03:56:01;;;;;;;37.03;17.53;;;;;;;;;;4991808;28;20088;-62
2022/12/03 03:58:27;;;;;;;35.87;18.90;;;;;;;;;;4990767;28;20057;-61
2022/12/03 04:00:53;;;;;;;30.47;17.03;;;;;;;;;;4991494;28;20039;-62
2022/12/03 04:03:19;;;;;;;36.40;19.13;;;;;;;;;;4991569;28;20050;-62
2022/12/03 04:05:45;;;;;;;32.97;17.73;;;;;;;;;;4990795;28;20043;-62
2022/12/03 04:08:11;;;;;;;32.83;18.40;;;;;;;;;;4991012;28;20081;-61
2022/12/03 04:13:22;;;;;;;31.27;18.83;;;;;;;;;;4990916;28;20050;-62
2022/12/03 04:15:48;;;;;;;32.10;18.23;;;;;;;;;;4991036;28;20042;-61
2022/12/03 04:23:44;;;;;;;31.30;18.20;;;;;;;;;;4989707;28;20176;-62
2022/12/03 04:28:55;;;;;;;36.37;20.20;;;;;;;;;;4990927;28;20050;-62
2022/12/03 04:36:50;;;;;;;34.63;17.77;;;;;;;;;;4997586;28;20053;-62
2022/12/03 04:39:16;;;;;;;36.90;19.90;;;;;;;;;;5010217;28;20057;-62
2022/12/03 04:41:42;;;;;;;30.97;17.57;;;;;;;;;;5008895;28;20179;-62
2022/12/03 04:46:53;;;;;;;30.07;17.23;;;;;;;;;;5010040;28;20476;-62
2022/12/03 04:49:19;;;;;;;33.77;17.80;;;;;;;;;;5009133;28;20042;-62
2022/12/03 04:51:45;;;;;;;37.13;18.93;;;;;;;;;;5009702;28;20483;-61
2022/12/03 04:54:11;;;;;;;33.73;18.17;;;;;;;;;;5009682;28;20088;-62
2022/12/03 04:56:38;;;;;;;34.17;18.53;;;;;;;;;;5009925;28;20578;-62
2022/12/03 04:59:04;;;;;;;30.27;17.70;;;;;;;;;;5010005;28;20046;-62
2022/12/03 05:01:30;;;;;;;30.60;16.17;;;;;;;;;;5010099;28;20493;-62
2022/12/03 05:03:56;;;;;;;34.00;18.57;;;;;;;;;;5010073;28;20045;-62
2022/12/03 05:06:22;;;;;;;34.97;17.97;;;;;;;;;;5008034;28;20062;-62
2022/12/03 05:08:48;;;;;;;34.73;19.47;;;;;;;;;;5009490;28;20081;-61
2022/12/03 05:11:14;;;;;;;32.70;17.60;;;;;;;;;;5009901;28;20089;-62
2022/12/03 05:13:40;;;;;;;32.10;18.70;;;;;;;;;;5008539;28;20054;-61
2022/12/03 05:16:06;;;;;;;31.23;18.50;;;;;;;;;;5009315;28;20057;-62
2022/12/03 05:18:32;;;;;;;31.07;17.93;;;;;;;;;;5008758;28;20042;-61
2022/12/03 05:20:58;;;;;;;31.90;18.13;;;;;;;;;;5009397;28;20411;-63
2022/12/03 05:23:24;;;;;;;32.93;17.70;;;;;;;;;;5009455;28;20050;-62
2022/12/03 05:25:51;;;;;;;33.50;17.40;;;;;;;;;;5009492;28;20458;-62
2022/12/03 05:28:17;;;;;;;32.03;17.70;;;;;;;;;;5009167;28;20889;-61
2022/12/03 05:30:43;;;;;;;33.73;19.30;;;;;;;;;;5009191;28;20052;-62
2022/12/03 05:33:09;;;;;;;30.97;17.00;;;;;;;;;;5009728;28;20061;-62
2022/12/03 05:35:35;;;;;;;34.53;17.80;;;;;;;;;;5008934;28;20424;-62
2022/12/03 05:38:01;;;;;;;30.50;15.90;;;;;;;;;;4992578;28;20053;-61
2022/12/03 05:40:27;;;;;;;34.23;18.23;;;;;;;;;;4989403;28;20058;-62
2022/12/03 05:42:53;;;;;;;31.43;18.83;;;;;;;;;;4989485;28;20054;-62
2022/12/03 05:45:20;;;;;;;32.40;17.17;;;;;;;;;;4990030;28;20460;-62
2022/12/03 05:47:46;;;;;;;33.00;18.10;;;;;;;;;;4989704;28;20042;-62
2022/12/03 05:50:13;;;;;;;33.80;18.60;;;;;;;;;;4989157;28;20146;-61
2022/12/03 05:52:39;;;;;;;29.73;17.47;;;;;;;;;;4989506;28;20057;-62
2022/12/03 05:55:05;;;;;;;33.10;17.90;;;;;;;;;;4989427;28;20054;-62
2022/12/03 05:57:31;;;;;;;32.27;17.47;;;;;;;;;;4989590;28;20092;-63
2022/12/03 05:59:57;;;;;;;36.37;20.47;;;;;;;;;;4989424;28;20051;-61
2022/12/03 06:02:23;;;;;;;34.83;18.80;;;;;;;;;;4989609;28;20093;-62
2022/12/03 06:04:49;;;;;;;34.93;19.40;;;;;;;;;;4989462;28;20051;-62
2022/12/03 06:07:16;;;;;;;34.50;18.77;;;;;;;;;;4989673;28;20054;-63
2022/12/03 06:09:42;;;;;;;38.73;19.83;;;;;;;;;;4989214;28;20054;-62
2022/12/03 06:12:08;;;;;;;37.13;19.57;;;;;;;;;;4989359;28;20085;-62
2022/12/03 06:14:34;;;;;;;35.50;20.47;;;;;;;;;;4989420;28;20497;-62
2022/12/03 06:17:00;;;;;;;35.23;18.67;;;;;;;;;;4989323;28;20065;-60
2022/12/03 06:19:26;;;;;;;34.03;18.27;;;;;;;;;;4989139;28;20050;-62
2022/12/03 06:21:52;;;;;;;36.30;18.80;;;;;;;;;;4989316;28;20493;-62
2022/12/03 06:24:18;;;;;;;34.40;18.17;;;;;;;;;;4990040;28;20057;-62
2022/12/03 06:26:44;;;;;;;32.33;17.77;;;;;;;;;;4989070;28;20050;-62
2022/12/03 06:29:11;;;;;;;34.53;18.60;;;;;;;;;;4990593;28;20591;-63
2022/12/03 06:31:37;;;;;;;36.50;18.80;;;;;;;;;;4992092;28;20460;-63
2022/12/03 06:34:03;;;;;;;36.27;19.97;;;;;;;;;;4993466;28;20050;-63
2022/12/03 06:36:29;;;;;;;37.00;20.00;;;;;;;;;;4996407;28;20077;-62
2022/12/03 06:38:55;;;;;;;38.33;19.90;;;;;;;;;;5012565;28;20085;-63
2022/12/03 06:41:21;;;;;;;32.33;17.33;;;;;;;;;;5012530;28;20048;-60
2022/12/03 06:43:47;;;;;;;34.70;18.47;;;;;;;;;;5012245;28;20492;-62
2022/12/03 06:46:13;;;;;;;37.20;18.20;;;;;;;;;;5012296;28;20053;-62
2022/12/03 06:48:39;;;;;;;36.30;18.83;;;;;;;;;;5012642;28;20057;-61
2022/12/03 06:51:05;;;;;;;39.93;18.83;;;;;;;;;;5012311;28;20480;-61
2022/12/03 06:53:31;;;;;;;34.97;19.33;;;;;;;;;;5012371;28;20050;-63
2022/12/03 06:55:57;;;;;;;39.33;19.83;;;;;;;;;;5011958;28;20107;-62
2022/12/03 06:58:23;;;;;;;42.63;21.67;;;;;;;;;;5012525;28;20046;-63
2022/12/03 07:00:49;;;;;;;38.93;22.37;;;;;;;;;;5012467;28;20046;-63
2022/12/03 07:03:15;;;;;;;38.67;21.50;;;;;;;;;;5012167;28;20099;-62
2022/12/03 07:05:42;;;;;;;39.90;20.53;;;;;;;;;;5010790;28;20285;-61
2022/12/03 07:08:08;;;;;;;38.83;21.23;;;;;;;;;;5012361;28;20041;-62
2022/12/03 07:10:34;;;;;;;37.87;21.03;;;;;;;;;;5011825;28;20050;-61
2022/12/03 07:13:00;;;;;;;44.67;22.73;;;;;;;;;;5012248;28;20049;-62
2022/12/03 07:15:26;;;;;;;41.93;22.23;;;;;;;;;;5011758;28;20148;-62
2022/12/03 07:17:52;;;;;;;44.83;24.30;;;;;;;;;;5011468;28;20060;-62
2022/12/03 07:20:18;;;;;;;51.47;23.27;;;;;;;;;;5011825;28;20057;-62
2022/12/03 07:22:44;;;;;;;46.70;25.03;;;;;;;;;;5012061;28;20053;-62
2022/12/03 07:25:12;;;;;;;45.00;22.73;;;;;;;;;;5011788;28;20107;-62
2022/12/03 07:27:38;;;;;;;49.27;24.90;;;;;;;;;;5011756;28;20508;-62
2022/12/03 07:30:05;;;;;;;44.90;23.97;;;;;;;;;;5010599;28;20651;-62
2022/12/03 07:32:31;;;;;;;46.97;24.73;;;;;;;;;;5011802;28;20768;-62
2022/12/03 07:34:57;;;;;;;46.07;23.50;;;;;;;;;;5012223;28;20057;-63
2022/12/03 07:37:23;;;;;;;43.77;23.33;;;;;;;;;;5000043;28;20046;-62
2022/12/03 07:39:51;;;;;;;43.07;24.33;;;;;;;;;;4990957;28;20054;-62
2022/12/03 07:42:17;;;;;;;46.33;23.07;;;;;;;;;;4989716;28;20085;-62
2022/12/03 07:44:43;;;;;;;40.27;23.43;;;;;;;;;;4991811;28;20441;-62
2022/12/03 07:47:09;;;;;;;46.70;22.27;;;;;;;;;;4991683;28;20050;-62
2022/12/03 07:49:35;;;;;;;45.33;22.23;;;;;;;;;;4991712;28;20050;-61
2022/12/03 07:52:01;;;;;;;45.93;23.37;;;;;;;;;;4991496;28;20054;-63
2022/12/03 07:54:27;;;;;;;47.70;23.57;;;;;;;;;;4991201;28;20046;-60
2022/12/03 07:56:53;;;;;;;45.60;22.93;;;;;;;;;;4991148;28;20054;-60
2022/12/03 07:59:20;;;;;;;46.47;22.53;;;;;;;;;;4991088;28;20452;-60
2022/12/03 08:01:46;;;;;;;45.30;23.27;;;;;;;;;;4990827;28;20046;-60
2022/12/03 08:04:13;;;;;;;47.50;21.87;;;;;;;;;;4990943;28;20100;-60
2022/12/03 08:06:39;;;;;;;44.90;22.13;;;;;;;;;;4990550;28;20680;-60
2022/12/03 08:09:05;;;;;;;46.77;22.47;;;;;;;;;;4990306;28;20069;-60
2022/12/03 08:11:32;;;;;;;46.93;23.63;;;;;;;;;;4990435;28;20309;-60
2022/12/03 08:13:58;;;;;;;43.37;22.00;;;;;;;;;;4990489;28;20047;-60
2022/12/03 08:16:25;;;;;;;56.47;23.90;;;;;;;;;;4990340;28;20081;-60
2022/12/03 08:18:53;;;;;;;48.30;24.17;;;;;;;;;;4990016;28;20085;-60
2022/12/03 08:21:21;;;;;;;51.90;24.70;;;;;;;;;;4990363;28;20116;-61
2022/12/03 08:23:47;;;;;;;50.17;26.03;;;;;;;;;;4989966;28;20038;-60
2022/12/03 08:26:22;;;;;;;48.47;20.67;;;;;;;;;;4989022;28;20305;-60
2022/12/03 08:28:48;;;;;;;50.87;25.43;;;;;;;;;;4990340;28;20054;-60
2022/12/03 08:31:18;;;;;;;46.23;23.37;;;;;;;;;;4990168;28;20050;-61
2022/12/03 08:33:44;;;;;;;47.33;23.80;;;;;;;;;;4989988;28;20174;-60
2022/12/03 08:36:19;;;;;;;49.30;25.07;;;;;;;;;;4989706;28;20457;-61
2022/12/03 08:38:48;;;;;;;49.10;23.97;;;;;;;;;;4989956;28;20807;-60
2022/12/03 08:42:40;;;;;;;48.10;23.93;;;;;;;;;;4989794;28;20289;-60
2022/12/03 08:44:09;;;;;;;45.17;23.60;;;;;;;;;;4989904;28;20294;-63
2022/12/03 08:46:35;;;;;;;44.03;22.47;;;;;;;;;;4989816;28;20313;-62
2022/12/03 08:49:01;;;;;;;50.27;24.13;;;;;;;;;;4989850;28;20047;-63
2022/12/03 08:51:27;;;;;;;46.40;22.47;;;;;;;;;;4989963;28;20500;-63
2022/12/03 08:53:58;;;;;;;45.83;23.57;;;;;;;;;;4990281;28;20288;-63
2022/12/03 08:56:26;;;;;;;42.80;21.33;;;;;;;;;;4990025;28;20046;-63
2022/12/03 08:58:56;;;;;;;44.87;20.20;;;;;;;;;;4988672;28;20297;-63
2022/12/03 09:01:26;;;;;;;40.43;22.80;;;;;;;;;;4990102;28;20050;-63
2022/12/03 09:03:53;;;;;;;44.47;22.60;;;;;;;;;;4989685;28;20297;-62
2022/12/03 09:06:20;;;;;;;39.87;21.67;;;;;;;;;;4990126;28;20810;-62
2022/12/03 09:08:46;;;;;;;43.70;22.10;;;;;;;;;;4989541;28;20794;-62
2022/12/03 09:11:12;;;;;;;42.10;22.57;;;;;;;;;;4989186;28;20317;-62
2022/12/03 09:13:38;;;;;;;43.40;23.40;;;;;;;;;;4989576;28;20150;-61
2022/12/03 09:16:04;;;;;;;41.67;20.47;;;;;;;;;;4989486;28;20285;-62
2022/12/03 09:18:31;;;;;;;40.63;21.17;;;;;;;;;;4989298;28;20074;-62
2022/12/03 09:20:57;;;;;;;39.30;21.70;;;;;;;;;;4989473;28;20046;-61
2022/12/03 09:23:23;;;;;;;40.80;20.70;;;;;;;;;;4988375;28;20421;-62
2022/12/03 09:25:49;;;;;;;35.00;17.77;;;;;;;;;;4989144;28;20340;-61
2022/12/03 09:28:15;;;;;;;38.73;18.37;;;;;;;;;;4989167;28;20043;-62
2022/12/03 09:30:41;;;;;;;36.70;17.77;;;;;;;;;;4989145;28;20046;-62
2022/12/03 09:33:09;;;;;;;39.77;21.63;;;;;;;;;;4989238;28;20130;-62
2022/12/03 09:35:35;;;;;;;39.67;21.20;;;;;;;;;;4989182;28;20046;-61
2022/12/03 09:38:01;;;;;;;40.53;22.90;;;;;;;;;;4989445;28;20038;-62
2022/12/03 09:40:28;;;;;;;38.00;20.97;;;;;;;;;;4988737;28;20517;-62
2022/12/03 09:42:57;;;;;;;36.30;16.50;;;;;;;;;;4989052;28;20062;-61
2022/12/03 09:45:23;;;;;;;41.80;21.00;;;;;;;;;;5003189;28;20425;-61
2022/12/03 09:47:49;;;;;;;44.53;21.80;;;;;;;;;;5008683;28;20299;-62
2022/12/03 09:50:21;;;;;;;39.93;21.30;;;;;;;;;;5008784;28;20149;-62
2022/12/03 09:52:48;;;;;;;43.83;22.77;;;;;;;;;;5007346;28;20444;-62
2022/12/03 09:55:16;;;;;;;47.87;23.57;;;;;;;;;;5009040;28;20180;-62
2022/12/03 09:57:42;;;;;;;42.40;22.10;;;;;;;;;;5008815;28;20927;-62
2022/12/03 10:00:17;;;;;;;44.93;22.00;;;;;;;;;;5007105;28;20042;-62
2022/12/03 10:02:47;;;;;;;41.80;21.83;;;;;;;;;;5008765;28;20060;-62
2022/12/03 10:05:14;;;;;;;41.20;22.67;;;;;;;;;;5007721;28;20057;-62
2022/12/03 10:07:40;;;;;;;39.17;21.60;;;;;;;;;;5008557;28;20535;-62
2022/12/03 10:10:07;;;;;;;44.13;21.97;;;;;;;;;;5008321;28;20052;-62
2022/12/03 10:12:33;;;;;;;40.63;21.23;;;;;;;;;;5008760;28;20061;-62
2022/12/03 10:15:00;;;;;;;40.97;21.53;;;;;;;;;;5008678;28;20396;-62
2022/12/03 10:17:28;;;;;;;42.33;21.83;;;;;;;;;;5008335;28;20053;-62
2022/12/03 10:19:54;;;;;;;40.23;23.37;;;;;;;;;;5008406;28;20384;-62
2022/12/03 10:22:20;;;;;;;39.53;20.83;;;;;;;;;;5008502;28;20050;-62
2022/12/03 10:25:03;;;;;;;43.53;22.03;;;;;;;;;;5008349;28;20056;-63
2022/12/03 10:27:30;;;;;;;43.60;21.40;;;;;;;;;;5008509;28;20417;-63
2022/12/03 10:30:00;;;;;;;47.97;22.43;;;;;;;;;;5008617;28;20046;-62
2022/12/03 10:32:37;;;;;;;37.87;21.27;;;;;;;;;;5006754;28;20046;-63
2022/12/03 10:35:08;;;;;;;44.20;24.23;;;;;;;;;;5008712;28;20045;-62
2022/12/03 10:37:34;;;;;;;44.17;22.80;;;;;;;;;;5008496;28;20053;-62
2022/12/03 10:40:04;;;;;;;43.63;22.97;;;;;;;;;;5008088;28;20054;-62
2022/12/03 10:42:33;;;;;;;43.00;21.30;;;;;;;;;;5005841;28;20077;-63
2022/12/03 10:45:17;;;;;;;41.90;21.57;;;;;;;;;;5007021;28;20081;-62
2022/12/03 10:47:43;;;;;;;41.70;22.38;;;;;;;;;;5008009;28;20369;-62
2022/12/03 10:50:18;;;;;;;44.37;22.77;;;;;;;;;;5007888;28;20054;-62
2022/12/03 10:52:44;;;;;;;47.10;23.50;;;;;;;;;;5008132;28;20054;-62
2022/12/03 10:55:12;;;;;;;47.80;23.73;;;;;;;;;;5008371;28;20049;-62
2022/12/03 10:57:38;;;;;;;41.97;23.17;;;;;;;;;;5007910;28;20137;-62
2022/12/03 11:00:05;;;;;;;44.03;22.70;;;;;;;;;;5008119;28;20042;-62
2022/12/03 11:02:31;;;;;;;42.40;24.27;;;;;;;;;;5008136;28;20046;-61
2022/12/03 11:04:57;;;;;;;42.67;23.30;;;;;;;;;;5008267;28;20037;-61
2022/12/03 11:07:24;;;;;;;42.30;22.80;;;;;;;;;;5008146;28;20492;-61
2022/12/03 11:09:54;;;;;;;41.30;21.93;;;;;;;;;;5008033;28;20968;-62
2022/12/03 11:12:22;;;;;;;40.53;22.87;;;;;;;;;;5007716;28;20736;-62
2022/12/03 11:14:52;;;;;;;44.67;23.93;;;;;;;;;;5007885;28;20473;-62
2022/12/03 11:17:24;;;;;;;42.63;22.30;;;;;;;;;;5009850;28;20064;-62
2022/12/03 11:19:51;;;;;;;44.23;25.10;;;;;;;;;;5011522;28;20587;-62
2022/12/03 11:22:25;;;;;;;49.20;23.17;;;;;;;;;;5011459;28;20451;-61
2022/12/03 11:25:27;;;;;;;43.67;24.10;;;;;;;;;;5011165;28;20049;-62
2022/12/03 11:28:11;;;;;;;45.50;22.47;;;;;;;;;;4969269;28;20054;-62
2022/12/03 11:30:50;;;;;;;45.63;23.97;;;;;;;;;;5005312;28;20217;-62
2022/12/03 11:33:43;;;;;;;42.43;22.00;;;;;;;;;;5009961;28;20048;-62
2022/12/03 11:36:10;;;;;;;40.63;22.30;;;;;;;;;;5009464;28;20058;-62
2022/12/03 11:38:36;;;;;;;46.77;24.77;;;;;;;;;;5010659;28;20145;-62
2022/12/03 11:41:10;;;;;;;43.47;23.23;;;;;;;;;;5011362;28;20034;-62
2022/12/03 11:43:36;;;;;;;;;;;;;;;;;;5011380;28;20064;-62
2022/12/03 11:46:08;;;;;;;42.63;21.97;;;;;;;;;;5010854;28;19973;-62
2022/12/03 11:48:41;;;;;;;41.13;22.30;;;;;;;;;;5011164;28;20132;-62
2022/12/03 11:51:13;;;;;;;45.50;24.38;;;;;;;;;;5011099;28;20499;-62
2022/12/03 11:53:39;;;;;;;42.03;23.77;;;;;;;;;;5010664;28;20103;-62
2022/12/03 11:56:07;;;;;;;43.23;23.00;;;;;;;;;;5011098;28;20096;-62
2022/12/03 11:58:35;;;;;;;49.20;26.30;;;;;;;;;;5010977;28;20053;-62
2022/12/03 12:01:02;;;;;;;44.70;22.37;;;;;;;;;;5011339;28;20045;-61
2022/12/03 12:03:32;;;;;;;48.87;24.57;;;;;;;;;;5010600;28;20045;-62
2022/12/03 12:06:31;;;;;;;44.77;23.20;;;;;;;;;;5011698;28;20046;-62
2022/12/03 12:08:58;;;;;;;45.30;24.03;;;;;;;;;;4976807;28;20487;-61
2022/12/03 12:11:31;;;;;;;45.33;24.73;;;;;;;;;;4993999;28;20491;-62
2022/12/03 12:13:57;;;;;;;45.90;23.92;;;;;;;;;;5010550;28;20046;-62
2022/12/03 12:16:36;;;;;;;44.43;25.03;;;;;;;;;;4998374;28;20054;-62
2022/12/03 12:19:20;;;;;;;43.53;22.43;;;;;;;;;;4993492;28;20060;-62
2022/12/03 12:21:47;;;;;;;43.60;23.90;;;;;;;;;;4995948;28;20041;-62
2022/12/03 12:24:29;;;;;;;44.57;23.63;;;;;;;;;;5006950;28;20164;-62
2022/12/03 12:26:55;;;;;;;43.43;24.20;;;;;;;;;;4994623;28;20050;-62
2022/12/03 12:29:21;;;;;;;41.57;22.80;;;;;;;;;;5006704;28;20052;-63
2022/12/03 12:31:51;;;;;;;43.23;23.47;;;;;;;;;;5007853;28;20051;-63
2022/12/03 12:34:18;;;;;;;44.73;25.37;;;;;;;;;;5010195;28;20861;-63
2022/12/03 12:36:44;;;;;;;47.53;26.53;;;;;;;;;;4999998;28;20050;-63
2022/12/03 12:39:11;;;;;;;43.47;21.73;;;;;;;;;;5007968;28;20113;-61
2022/12/03 12:41:38;;;;;;;43.43;22.80;;;;;;;;;;5009564;28;20050;-61
2022/12/03 12:44:09;;;;;;;39.07;21.63;;;;;;;;;;5005241;28;20060;-62
2022/12/03 12:46:36;;;;;;;41.70;20.80;;;;;;;;;;4996387;28;20038;-61
2022/12/03 12:49:07;;;;;;;40.40;22.90;;;;;;;;;;5008449;28;20050;-61
2022/12/03 12:51:33;;;;;;;38.97;21.47;;;;;;;;;;5009329;28;20053;-60
2022/12/03 12:53:59;;;;;;;47.67;23.67;;;;;;;;;;5005669;28;20049;-61
2022/12/03 12:56:29;;;;;;;38.30;20.03;;;;;;;;;;4995143;28;20049;-62
2022/12/03 12:59:01;;;;;;;42.93;23.47;;;;;;;;;;5009886;28;20075;-62
2022/12/03 13:01:29;;;;;;;41.67;22.90;;;;;;;;;;5008374;28;20052;-63
2022/12/03 13:03:56;;;;;;;42.57;23.87;;;;;;;;;;4991345;28;20046;-62
2022/12/03 13:06:26;;;;;;;42.37;23.83;;;;;;;;;;4997387;28;20042;-62
2022/12/03 13:08:52;;;;;;;39.40;20.93;;;;;;;;;;5007978;28;20107;-62
2022/12/03 13:11:24;;;;;;;45.80;22.93;;;;;;;;;;5001041;28;20054;-62
2022/12/03 13:13:50;;;;;;;38.90;21.33;;;;;;;;;;4989404;28;20509;-61
2022/12/03 13:16:18;;;;;;;41.37;21.97;;;;;;;;;;4990146;28;20109;-61
2022/12/03 13:18:58;;;;;;;43.53;22.57;;;;;;;;;;5001086;28;20053;-61
2022/12/03 13:21:36;;;;;;;43.33;22.83;;;;;;;;;;4991226;28;20096;-61
2022/12/03 13:24:09;;;;;;;41.73;21.67;;;;;;;;;;4989366;28;20058;-61
2022/12/03 13:26:38;;;;;;;46.45;22.70;;;;;;;;;;4990153;28;20038;-61
2022/12/03 13:29:15;;;;;;;43.07;23.07;;;;;;;;;;4998090;28;20045;-61
2022/12/03 13:31:44;;;;;;;44.13;20.77;;;;;;;;;;4999125;28;20054;-61
2022/12/03 13:34:16;;;;;;;42.40;22.30;;;;;;;;;;4989528;28;20500;-61
2022/12/03 13:36:43;;;;;;;40.67;21.77;;;;;;;;;;4989558;28;20052;-62
2022/12/03 13:39:12;;;;;;;39.10;22.87;;;;;;;;;;4994774;28;20042;-62
2022/12/03 13:44:23;;;;;;;43.70;21.80;;;;;;;;;;4992425;28;20308;-62
2022/12/03 13:46:49;;;;;;;39.90;22.27;;;;;;;;;;4989215;28;20046;-62
2022/12/03 13:49:18;;;;;;;43.13;21.80;;;;;;;;;;4989078;28;20046;-62
2022/12/03 13:51:46;;;;;;;39.93;22.40;;;;;;;;;;4988168;28;20050;-61
2022/12/03 13:54:13;;;;;;;43.13;23.03;;;;;;;;;;4988219;28;20054;-61
2022/12/03 13:56:39;;;;;;;37.13;21.40;;;;;;;;;;4988793;28;20050;-62
2022/12/03 13:59:06;;;;;;;45.03;22.70;;;;;;;;;;5005890;28;20107;-62
2022/12/03 14:01:32;;;;;;;42.73;22.97;;;;;;;;;;5006878;28;20073;-61
2022/12/03 14:03:58;;;;;;;43.43;24.10;;;;;;;;;;5006971;28;20045;-61
2022/12/03 14:06:24;;;;;;;42.77;23.10;;;;;;;;;;5005703;28;20092;-61
2022/12/03 14:08:50;;;;;;;44.33;23.47;;;;;;;;;;5006350;28;20316;-62
2022/12/03 14:14:01;;;;;;;46.67;24.30;;;;;;;;;;5006754;28;20046;-62
2022/12/03 14:16:27;;;;;;;40.90;21.00;;;;;;;;;;5008403;28;20285;-61
2022/12/03 14:18:53;;;;;;;46.00;23.97;;;;;;;;;;5008234;28;20292;-62
2022/12/03 14:21:19;;;;;;;42.23;21.93;;;;;;;;;;5007955;28;20056;-62
2022/12/03 14:23:45;;;;;;;46.83;24.50;;;;;;;;;;5008125;28;20292;-62
2022/12/03 14:26:11;;;;;;;44.20;23.43;;;;;;;;;;5007306;28;20844;-61
2022/12/03 14:28:37;;;;;;;46.83;25.20;;;;;;;;;;5007999;28;20285;-62
2022/12/03 14:31:03;;;;;;;44.47;22.47;;;;;;;;;;5007962;28;20057;-62
2022/12/03 14:33:29;;;;;;;42.83;22.90;;;;;;;;;;5007936;28;20775;-61
2022/12/03 14:35:56;;;;;;;44.83;22.97;;;;;;;;;;5007546;28;20319;-61
2022/12/03 14:38:22;;;;;;;45.23;22.57;;;;;;;;;;5006728;28;20316;-61
2022/12/03 14:40:48;;;;;;;45.80;23.50;;;;;;;;;;5005486;28;20364;-61
2022/12/03 14:43:14;;;;;;;40.97;22.67;;;;;;;;;;4987660;28;20377;-61
2022/12/03 14:45:40;;;;;;;44.33;22.77;;;;;;;;;;4988447;28;20393;-61